sensor_id;sensor_type;location;lat;lon;timestamp;P1;durP1;ratioP1;P2;durP2;ratioP2
7571;SDS011;3827;49.928;8.548;2023-01-08T00:01:22;5.10;;;4.63;;
7571;SDS011;3827;49.928;8.548;2023-01-08T00:03:49;5.70;;;5.20;;
7571;SDS011;3827;49.928;8.548;2023-01-08T00:06:18;5.57;;;5.17;;
7571;SDS011;3827;49.928;8.548;2023-01-08T00:08:46;5.30;;;4.85;;
7571;SDS011;3827;49.928;8.548;2023-01-08T00:11:13;5.35;;;4.95;;
7571;SDS011;3827;49.928;8.548;2023-01-08T00:13:40;5.53;;;4.95;;
7571;SDS011;3827;49.928;8.548;2023-01-08T00:16:08;5.30;;;4.90;;
7571;SDS011;3827;49.928;8.548;2023-01-08T00:18:36;5.10;;;4.70;;
7571;SDS011;3827;49.928;8.548;2023-01-08T00:21:03;5.10;;;4.70;;
7571;SDS011;3827;49.928;8.548;2023-01-08T00:23:32;5.10;;;4.70;;
7571;SDS011;3827;49.928;8.548;2023-01-08T00:26:00;5.45;;;4.95;;
7571;SDS011;3827;49.928;8.548;2023-01-08T00:28:28;5.05;;;4.65;;
7571;SDS011;3827;49.928;8.548;2023-01-08T00:30:55;5.43;;;4.93;;
7571;SDS011;3827;49.928;8.548;2023-01-08T00:33:22;5.40;;;4.90;;
7571;SDS011;3827;49.928;8.548;2023-01-08T00:35:49;5.10;;;4.68;;
7571;SDS011;3827;49.928;8.548;2023-01-08T00:38:16;5.30;;;4.90;;
7571;SDS011;3827;49.928;8.548;2023-01-08T00:40:46;5.57;;;5.07;;
7571;SDS011;3827;49.928;8.548;2023-01-08T00:43:13;5.20;;;4.78;;
7571;SDS011;3827;49.928;8.548;2023-01-08T00:45:40;5.15;;;4.75;;
7571;SDS011;3827;49.928;8.548;2023-01-08T00:48:08;5.63;;;5.22;;
7571;SDS011;3827;49.928;8.548;2023-01-08T00:50:35;5.63;;;5.22;;
7571;SDS011;3827;49.928;8.548;2023-01-08T00:53:02;5.85;;;5.35;;
7571;SDS011;3827;49.928;8.548;2023-01-08T00:55:29;6.00;;;5.50;;
7571;SDS011;3827;49.928;8.548;2023-01-08T00:57:57;6.05;;;5.55;;
7571;SDS011;3827;49.928;8.548;2023-01-08T01:00:24;6.00;;;5.50;;
7571;SDS011;3827;49.928;8.548;2023-01-08T01:02:51;5.53;;;5.13;;
7571;SDS011;3827;49.928;8.548;2023-01-08T01:05:18;5.60;;;5.20;;
7571;SDS011;3827;49.928;8.548;2023-01-08T01:07:45;5.97;;;5.45;;
7571;SDS011;3827;49.928;8.548;2023-01-08T01:10:13;5.68;;;5.18;;
7571;SDS011;3827;49.928;8.548;2023-01-08T01:12:40;5.30;;;4.90;;
7571;SDS011;3827;49.928;8.548;2023-01-08T01:15:10;6.10;;;5.60;;
7571;SDS011;3827;49.928;8.548;2023-01-08T01:17:38;5.28;;;4.72;;
7571;SDS011;3827;49.928;8.548;2023-01-08T01:20:06;5.35;;;4.95;;
7571;SDS011;3827;49.928;8.548;2023-01-08T01:22:34;5.20;;;4.80;;
7571;SDS011;3827;49.928;8.548;2023-01-08T01:25:01;5.30;;;4.90;;
7571;SDS011;3827;49.928;8.548;2023-01-08T01:27:29;4.82;;;4.43;;
7571;SDS011;3827;49.928;8.548;2023-01-08T01:29:56;4.97;;;4.57;;
7571;SDS011;3827;49.928;8.548;2023-01-08T01:32:24;4.83;;;4.43;;
7571;SDS011;3827;49.928;8.548;2023-01-08T01:34:51;5.75;;;5.25;;
7571;SDS011;3827;49.928;8.548;2023-01-08T01:37:18;5.35;;;4.82;;
7571;SDS011;3827;49.928;8.548;2023-01-08T01:39:45;5.22;;;4.82;;
7571;SDS011;3827;49.928;8.548;2023-01-08T01:42:12;5.40;;;4.93;;
7571;SDS011;3827;49.928;8.548;2023-01-08T01:45:00;5.13;;;4.70;;
7571;SDS011;3827;49.928;8.548;2023-01-08T01:47:30;5.03;;;4.53;;
7571;SDS011;3827;49.928;8.548;2023-01-08T01:50:02;4.88;;;4.47;;
7571;SDS011;3827;49.928;8.548;2023-01-08T01:52:32;5.15;;;4.75;;
7571;SDS011;3827;49.928;8.548;2023-01-08T01:55:03;5.43;;;5.03;;
7571;SDS011;3827;49.928;8.548;2023-01-08T01:57:31;5.75;;;5.25;;
7571;SDS011;3827;49.928;8.548;2023-01-08T01:59:59;5.00;;;4.60;;
7571;SDS011;3827;49.928;8.548;2023-01-08T02:02:30;5.72;;;5.22;;
7571;SDS011;3827;49.928;8.548;2023-01-08T02:04:57;5.70;;;5.20;;
7571;SDS011;3827;49.928;8.548;2023-01-08T02:07:25;5.72;;;5.13;;
7571;SDS011;3827;49.928;8.548;2023-01-08T02:09:56;5.88;;;5.47;;
7571;SDS011;3827;49.928;8.548;2023-01-08T02:12:28;5.72;;;5.32;;
7571;SDS011;3827;49.928;8.548;2023-01-08T02:14:59;5.90;;;5.40;;
7571;SDS011;3827;49.928;8.548;2023-01-08T02:17:32;6.38;;;5.88;;
7571;SDS011;3827;49.928;8.548;2023-01-08T02:20:01;6.57;;;6.00;;
7571;SDS011;3827;49.928;8.548;2023-01-08T02:22:33;6.40;;;5.93;;
7571;SDS011;3827;49.928;8.548;2023-01-08T02:25:08;6.75;;;6.25;;
7571;SDS011;3827;49.928;8.548;2023-01-08T02:27:37;6.82;;;6.22;;
7571;SDS011;3827;49.928;8.548;2023-01-08T02:30:07;6.32;;;5.82;;
7571;SDS011;3827;49.928;8.548;2023-01-08T02:32:35;7.10;;;6.50;;
7571;SDS011;3827;49.928;8.548;2023-01-08T02:35:03;6.85;;;6.25;;
7571;SDS011;3827;49.928;8.548;2023-01-08T02:37:30;7.63;;;7.03;;
7571;SDS011;3827;49.928;8.548;2023-01-08T02:40:02;7.47;;;6.88;;
7571;SDS011;3827;49.928;8.548;2023-01-08T02:42:37;7.53;;;6.93;;
7571;SDS011;3827;49.928;8.548;2023-01-08T02:45:13;8.10;;;7.40;;
7571;SDS011;3827;49.928;8.548;2023-01-08T02:48:06;8.17;;;7.43;;
7571;SDS011;3827;49.928;8.548;2023-01-08T02:50:37;7.53;;;6.93;;
7571;SDS011;3827;49.928;8.548;2023-01-08T02:53:08;7.55;;;6.95;;
7571;SDS011;3827;49.928;8.548;2023-01-08T02:55:39;7.60;;;7.00;;
7571;SDS011;3827;49.928;8.548;2023-01-08T02:58:07;8.23;;;7.50;;
7571;SDS011;3827;49.928;8.548;2023-01-08T03:00:36;8.20;;;7.60;;
7571;SDS011;3827;49.928;8.548;2023-01-08T03:03:06;8.32;;;7.63;;
7571;SDS011;3827;49.928;8.548;2023-01-08T03:05:35;9.35;;;8.50;;
7571;SDS011;3827;49.928;8.548;2023-01-08T03:08:03;8.45;;;7.75;;
7571;SDS011;3827;49.928;8.548;2023-01-08T03:10:31;8.10;;;7.40;;
7571;SDS011;3827;49.928;8.548;2023-01-08T03:13:00;8.60;;;7.90;;
7571;SDS011;3827;49.928;8.548;2023-01-08T03:15:29;8.65;;;7.85;;
7571;SDS011;3827;49.928;8.548;2023-01-08T03:17:59;8.63;;;7.82;;
7571;SDS011;3827;49.928;8.548;2023-01-08T03:20:29;8.40;;;7.70;;
7571;SDS011;3827;49.928;8.548;2023-01-08T03:22:59;8.47;;;7.67;;
7571;SDS011;3827;49.928;8.548;2023-01-08T03:25:27;7.55;;;6.95;;
7571;SDS011;3827;49.928;8.548;2023-01-08T03:27:56;7.72;;;7.10;;
7571;SDS011;3827;49.928;8.548;2023-01-08T03:30:27;7.47;;;6.88;;
7571;SDS011;3827;49.928;8.548;2023-01-08T03:32:56;7.80;;;7.20;;
7571;SDS011;3827;49.928;8.548;2023-01-08T03:35:26;7.70;;;7.10;;
7571;SDS011;3827;49.928;8.548;2023-01-08T03:37:56;8.18;;;7.38;;
7571;SDS011;3827;49.928;8.548;2023-01-08T03:40:30;7.32;;;6.82;;
7571;SDS011;3827;49.928;8.548;2023-01-08T03:43:00;8.15;;;7.35;;
7571;SDS011;3827;49.928;8.548;2023-01-08T03:45:27;7.47;;;6.88;;
7571;SDS011;3827;49.928;8.548;2023-01-08T03:47:56;8.10;;;7.38;;
7571;SDS011;3827;49.928;8.548;2023-01-08T03:50:27;8.30;;;7.60;;
7571;SDS011;3827;49.928;8.548;2023-01-08T03:52:56;7.80;;;7.20;;
7571;SDS011;3827;49.928;8.548;2023-01-08T03:55:23;7.93;;;7.30;;
7571;SDS011;3827;49.928;8.548;2023-01-08T03:57:50;7.75;;;6.95;;
7571;SDS011;3827;49.928;8.548;2023-01-08T04:00:17;8.13;;;7.40;;
7571;SDS011;3827;49.928;8.548;2023-01-08T04:02:44;7.55;;;6.85;;
7571;SDS011;3827;49.928;8.548;2023-01-08T04:05:11;7.88;;;7.28;;
7571;SDS011;3827;49.928;8.548;2023-01-08T04:07:39;7.90;;;7.18;;
7571;SDS011;3827;49.928;8.548;2023-01-08T04:10:06;7.75;;;7.05;;
7571;SDS011;3827;49.928;8.548;2023-01-08T04:12:33;8.00;;;7.30;;
7571;SDS011;3827;49.928;8.548;2023-01-08T04:15:00;8.10;;;7.30;;
7571;SDS011;3827;49.928;8.548;2023-01-08T04:17:27;8.50;;;7.80;;
7571;SDS011;3827;49.928;8.548;2023-01-08T04:19:54;8.73;;;7.95;;
7571;SDS011;3827;49.928;8.548;2023-01-08T04:22:21;8.25;;;7.53;;
7571;SDS011;3827;49.928;8.548;2023-01-08T04:24:49;8.05;;;7.35;;
7571;SDS011;3827;49.928;8.548;2023-01-08T04:27:16;7.78;;;7.18;;
7571;SDS011;3827;49.928;8.548;2023-01-08T04:29:43;8.77;;;7.97;;
7571;SDS011;3827;49.928;8.548;2023-01-08T04:32:10;8.13;;;7.43;;
7571;SDS011;3827;49.928;8.548;2023-01-08T04:34:37;8.18;;;7.57;;
7571;SDS011;3827;49.928;8.548;2023-01-08T04:37:04;8.02;;;7.32;;
7571;SDS011;3827;49.928;8.548;2023-01-08T04:39:31;8.40;;;7.60;;
7571;SDS011;3827;49.928;8.548;2023-01-08T04:41:59;8.63;;;7.82;;
7571;SDS011;3827;49.928;8.548;2023-01-08T04:44:26;8.40;;;7.70;;
7571;SDS011;3827;49.928;8.548;2023-01-08T04:46:53;8.70;;;7.95;;
7571;SDS011;3827;49.928;8.548;2023-01-08T04:49:20;8.80;;;8.10;;
7571;SDS011;3827;49.928;8.548;2023-01-08T04:51:47;8.43;;;7.72;;
7571;SDS011;3827;49.928;8.548;2023-01-08T04:54:14;8.45;;;7.75;;
7571;SDS011;3827;49.928;8.548;2023-01-08T04:56:41;9.27;;;8.45;;
7571;SDS011;3827;49.928;8.548;2023-01-08T04:59:10;8.70;;;7.90;;
7571;SDS011;3827;49.928;8.548;2023-01-08T05:01:37;8.82;;;8.10;;
7571;SDS011;3827;49.928;8.548;2023-01-08T05:04:04;8.40;;;7.70;;
7571;SDS011;3827;49.928;8.548;2023-01-08T05:06:31;7.90;;;7.25;;
7571;SDS011;3827;49.928;8.548;2023-01-08T05:08:58;7.63;;;7.03;;
7571;SDS011;3827;49.928;8.548;2023-01-08T05:11:25;7.82;;;7.22;;
7571;SDS011;3827;49.928;8.548;2023-01-08T05:13:52;7.68;;;7.07;;
7571;SDS011;3827;49.928;8.548;2023-01-08T05:16:21;7.40;;;6.70;;
7571;SDS011;3827;49.928;8.548;2023-01-08T05:18:49;7.60;;;6.85;;
7571;SDS011;3827;49.928;8.548;2023-01-08T05:21:16;8.00;;;7.23;;
7571;SDS011;3827;49.928;8.548;2023-01-08T05:23:43;7.72;;;7.00;;
7571;SDS011;3827;49.928;8.548;2023-01-08T05:26:12;7.30;;;6.70;;
7571;SDS011;3827;49.928;8.548;2023-01-08T05:28:39;7.05;;;6.45;;
7571;SDS011;3827;49.928;8.548;2023-01-08T05:31:06;6.82;;;6.30;;
7571;SDS011;3827;49.928;8.548;2023-01-08T05:33:35;6.88;;;6.28;;
7571;SDS011;3827;49.928;8.548;2023-01-08T05:36:03;6.80;;;6.25;;
7571;SDS011;3827;49.928;8.548;2023-01-08T05:38:30;6.68;;;6.07;;
7571;SDS011;3827;49.928;8.548;2023-01-08T05:40:57;6.55;;;6.05;;
7571;SDS011;3827;49.928;8.548;2023-01-08T05:43:24;6.68;;;6.18;;
7571;SDS011;3827;49.928;8.548;2023-01-08T05:45:50;7.03;;;6.43;;
7571;SDS011;3827;49.928;8.548;2023-01-08T05:48:17;6.50;;;5.97;;
7571;SDS011;3827;49.928;8.548;2023-01-08T05:50:47;6.25;;;5.70;;
7571;SDS011;3827;49.928;8.548;2023-01-08T05:53:14;6.47;;;5.88;;
7571;SDS011;3827;49.928;8.548;2023-01-08T05:55:41;6.72;;;6.13;;
7571;SDS011;3827;49.928;8.548;2023-01-08T05:58:07;6.73;;;6.13;;
7571;SDS011;3827;49.928;8.548;2023-01-08T06:00:36;6.45;;;5.95;;
7571;SDS011;3827;49.928;8.548;2023-01-08T06:03:03;6.32;;;5.82;;
7571;SDS011;3827;49.928;8.548;2023-01-08T06:05:30;6.47;;;5.88;;
7571;SDS011;3827;49.928;8.548;2023-01-08T06:07:59;5.85;;;5.35;;
7571;SDS011;3827;49.928;8.548;2023-01-08T06:10:26;6.03;;;5.53;;
7571;SDS011;3827;49.928;8.548;2023-01-08T06:12:53;6.70;;;6.10;;
7571;SDS011;3827;49.928;8.548;2023-01-08T06:15:20;6.53;;;5.93;;
7571;SDS011;3827;49.928;8.548;2023-01-08T06:17:47;6.15;;;5.55;;
7571;SDS011;3827;49.928;8.548;2023-01-08T06:20:14;6.10;;;5.60;;
7571;SDS011;3827;49.928;8.548;2023-01-08T06:22:41;5.20;;;4.80;;
7571;SDS011;3827;49.928;8.548;2023-01-08T06:25:09;5.88;;;5.47;;
7571;SDS011;3827;49.928;8.548;2023-01-08T06:27:36;6.23;;;5.73;;
7571;SDS011;3827;49.928;8.548;2023-01-08T06:30:04;6.22;;;5.72;;
7571;SDS011;3827;49.928;8.548;2023-01-08T06:32:31;6.22;;;5.70;;
7571;SDS011;3827;49.928;8.548;2023-01-08T06:34:58;6.03;;;5.53;;
7571;SDS011;3827;49.928;8.548;2023-01-08T06:37:25;6.35;;;5.85;;
7571;SDS011;3827;49.928;8.548;2023-01-08T06:39:52;6.30;;;5.72;;
7571;SDS011;3827;49.928;8.548;2023-01-08T06:42:20;6.22;;;5.72;;
7571;SDS011;3827;49.928;8.548;2023-01-08T06:44:47;6.45;;;5.95;;
7571;SDS011;3827;49.928;8.548;2023-01-08T06:47:14;6.33;;;5.83;;
7571;SDS011;3827;49.928;8.548;2023-01-08T06:49:42;6.47;;;5.88;;
7571;SDS011;3827;49.928;8.548;2023-01-08T06:52:09;6.05;;;5.53;;
7571;SDS011;3827;49.928;8.548;2023-01-08T06:54:36;6.63;;;6.10;;
7571;SDS011;3827;49.928;8.548;2023-01-08T06:57:03;6.57;;;5.97;;
7571;SDS011;3827;49.928;8.548;2023-01-08T06:59:31;6.20;;;5.60;;
7571;SDS011;3827;49.928;8.548;2023-01-08T07:01:58;5.82;;;5.40;;
7571;SDS011;3827;49.928;8.548;2023-01-08T07:04:25;6.10;;;5.60;;
7571;SDS011;3827;49.928;8.548;2023-01-08T07:06:52;6.57;;;6.00;;
7571;SDS011;3827;49.928;8.548;2023-01-08T07:09:19;5.53;;;5.10;;
7571;SDS011;3827;49.928;8.548;2023-01-08T07:11:46;5.82;;;5.32;;
7571;SDS011;3827;49.928;8.548;2023-01-08T07:14:13;5.68;;;5.18;;
7571;SDS011;3827;49.928;8.548;2023-01-08T07:16:41;6.20;;;5.70;;
7571;SDS011;3827;49.928;8.548;2023-01-08T07:19:08;6.07;;;5.60;;
7571;SDS011;3827;49.928;8.548;2023-01-08T07:21:36;6.87;;;6.27;;
7571;SDS011;3827;49.928;8.548;2023-01-08T07:24:03;6.93;;;6.32;;
7571;SDS011;3827;49.928;8.548;2023-01-08T07:26:31;7.10;;;6.40;;
7571;SDS011;3827;49.928;8.548;2023-01-08T07:28:58;6.90;;;6.20;;
7571;SDS011;3827;49.928;8.548;2023-01-08T07:31:25;6.80;;;6.20;;
7571;SDS011;3827;49.928;8.548;2023-01-08T07:33:53;7.03;;;6.43;;
7571;SDS011;3827;49.928;8.548;2023-01-08T07:36:20;7.15;;;6.45;;
7571;SDS011;3827;49.928;8.548;2023-01-08T07:38:48;6.90;;;6.30;;
7571;SDS011;3827;49.928;8.548;2023-01-08T07:41:15;6.80;;;6.22;;
7571;SDS011;3827;49.928;8.548;2023-01-08T07:43:42;6.78;;;6.18;;
7571;SDS011;3827;49.928;8.548;2023-01-08T07:46:09;6.03;;;5.53;;
7571;SDS011;3827;49.928;8.548;2023-01-08T07:48:36;6.80;;;6.20;;
7571;SDS011;3827;49.928;8.548;2023-01-08T07:51:05;6.55;;;6.05;;
7571;SDS011;3827;49.928;8.548;2023-01-08T07:53:33;6.65;;;6.15;;
7571;SDS011;3827;49.928;8.548;2023-01-08T07:56:00;6.63;;;6.13;;
7571;SDS011;3827;49.928;8.548;2023-01-08T07:58:27;6.20;;;5.70;;
7571;SDS011;3827;49.928;8.548;2023-01-08T08:00:54;6.88;;;6.20;;
7571;SDS011;3827;49.928;8.548;2023-01-08T08:03:22;6.40;;;5.90;;
7571;SDS011;3827;49.928;8.548;2023-01-08T08:05:49;6.35;;;5.85;;
7571;SDS011;3827;49.928;8.548;2023-01-08T08:08:18;6.57;;;6.07;;
7571;SDS011;3827;49.928;8.548;2023-01-08T08:10:45;5.70;;;5.22;;
7571;SDS011;3827;49.928;8.548;2023-01-08T08:13:12;6.30;;;5.70;;
7571;SDS011;3827;49.928;8.548;2023-01-08T08:15:39;6.82;;;6.20;;
7571;SDS011;3827;49.928;8.548;2023-01-08T08:18:06;6.50;;;5.90;;
7571;SDS011;3827;49.928;8.548;2023-01-08T08:20:33;6.20;;;5.70;;
7571;SDS011;3827;49.928;8.548;2023-01-08T08:23:00;6.40;;;5.90;;
7571;SDS011;3827;49.928;8.548;2023-01-08T08:25:29;6.00;;;5.50;;
7571;SDS011;3827;49.928;8.548;2023-01-08T08:27:56;6.13;;;5.53;;
7571;SDS011;3827;49.928;8.548;2023-01-08T08:30:24;5.65;;;5.15;;
7571;SDS011;3827;49.928;8.548;2023-01-08T08:32:52;5.80;;;5.30;;
7571;SDS011;3827;49.928;8.548;2023-01-08T08:35:19;6.15;;;5.65;;
7571;SDS011;3827;49.928;8.548;2023-01-08T08:37:47;6.43;;;5.82;;
7571;SDS011;3827;49.928;8.548;2023-01-08T08:40:13;6.18;;;5.68;;
7571;SDS011;3827;49.928;8.548;2023-01-08T08:42:42;5.82;;;5.43;;
7571;SDS011;3827;49.928;8.548;2023-01-08T08:45:09;6.70;;;6.05;;
7571;SDS011;3827;49.928;8.548;2023-01-08T08:47:36;6.40;;;5.90;;
7571;SDS011;3827;49.928;8.548;2023-01-08T08:50:03;6.70;;;6.10;;
7571;SDS011;3827;49.928;8.548;2023-01-08T08:52:30;6.60;;;6.00;;
7571;SDS011;3827;49.928;8.548;2023-01-08T08:54:58;6.43;;;5.93;;
7571;SDS011;3827;49.928;8.548;2023-01-08T08:57:25;6.93;;;6.32;;
7571;SDS011;3827;49.928;8.548;2023-01-08T08:59:53;6.75;;;6.15;;
7571;SDS011;3827;49.928;8.548;2023-01-08T09:02:20;7.22;;;6.63;;
7571;SDS011;3827;49.928;8.548;2023-01-08T09:04:47;6.53;;;5.93;;
7571;SDS011;3827;49.928;8.548;2023-01-08T09:07:14;7.38;;;6.47;;
7571;SDS011;3827;49.928;8.548;2023-01-08T09:09:41;7.18;;;6.57;;
7571;SDS011;3827;49.928;8.548;2023-01-08T09:12:08;7.03;;;6.40;;
7571;SDS011;3827;49.928;8.548;2023-01-08T09:14:34;6.80;;;6.20;;
7571;SDS011;3827;49.928;8.548;2023-01-08T09:17:03;6.55;;;5.95;;
7571;SDS011;3827;49.928;8.548;2023-01-08T09:19:30;6.40;;;5.80;;
7571;SDS011;3827;49.928;8.548;2023-01-08T09:21:57;7.10;;;6.50;;
7571;SDS011;3827;49.928;8.548;2023-01-08T09:24:24;6.53;;;6.03;;
7571;SDS011;3827;49.928;8.548;2023-01-08T09:26:51;6.80;;;6.20;;
7571;SDS011;3827;49.928;8.548;2023-01-08T09:29:18;6.60;;;6.10;;
7571;SDS011;3827;49.928;8.548;2023-01-08T09:31:45;6.70;;;6.20;;
7571;SDS011;3827;49.928;8.548;2023-01-08T09:34:14;7.57;;;6.90;;
7571;SDS011;3827;49.928;8.548;2023-01-08T09:36:41;7.18;;;6.40;;
7571;SDS011;3827;49.928;8.548;2023-01-08T09:39:08;7.70;;;7.00;;
7571;SDS011;3827;49.928;8.548;2023-01-08T09:41:35;7.22;;;6.60;;
7571;SDS011;3827;49.928;8.548;2023-01-08T09:44:04;7.60;;;6.82;;
7571;SDS011;3827;49.928;8.548;2023-01-08T09:46:32;7.05;;;6.55;;
7571;SDS011;3827;49.928;8.548;2023-01-08T09:49:03;7.22;;;6.60;;
7571;SDS011;3827;49.928;8.548;2023-01-08T09:51:33;7.57;;;6.88;;
7571;SDS011;3827;49.928;8.548;2023-01-08T09:54:01;7.20;;;6.60;;
7571;SDS011;3827;49.928;8.548;2023-01-08T09:56:30;7.33;;;6.73;;
7571;SDS011;3827;49.928;8.548;2023-01-08T09:58:59;7.55;;;6.93;;
7571;SDS011;3827;49.928;8.548;2023-01-08T10:01:27;8.20;;;7.50;;
7571;SDS011;3827;49.928;8.548;2023-01-08T10:03:56;8.07;;;7.40;;
7571;SDS011;3827;49.928;8.548;2023-01-08T10:06:24;8.13;;;7.43;;
7571;SDS011;3827;49.928;8.548;2023-01-08T10:08:52;8.50;;;7.90;;
7571;SDS011;3827;49.928;8.548;2023-01-08T10:11:19;8.60;;;7.90;;
7571;SDS011;3827;49.928;8.548;2023-01-08T10:13:48;8.77;;;8.00;;
7571;SDS011;3827;49.928;8.548;2023-01-08T10:16:18;8.55;;;7.85;;
7571;SDS011;3827;49.928;8.548;2023-01-08T10:18:50;9.60;;;8.80;;
7571;SDS011;3827;49.928;8.548;2023-01-08T10:21:17;8.75;;;7.95;;
7571;SDS011;3827;49.928;8.548;2023-01-08T10:23:47;8.68;;;7.88;;
7571;SDS011;3827;49.928;8.548;2023-01-08T10:26:25;8.37;;;7.67;;
7571;SDS011;3827;49.928;8.548;2023-01-08T10:29:04;8.63;;;7.93;;
7571;SDS011;3827;49.928;8.548;2023-01-08T10:31:31;8.03;;;7.40;;
7571;SDS011;3827;49.928;8.548;2023-01-08T10:34:05;7.82;;;7.22;;
7571;SDS011;3827;49.928;8.548;2023-01-08T10:36:36;7.50;;;6.90;;
7571;SDS011;3827;49.928;8.548;2023-01-08T10:39:04;7.90;;;7.20;;
7571;SDS011;3827;49.928;8.548;2023-01-08T10:41:37;7.22;;;6.63;;
7571;SDS011;3827;49.928;8.548;2023-01-08T10:44:05;7.75;;;7.15;;
7571;SDS011;3827;49.928;8.548;2023-01-08T10:46:34;6.97;;;6.38;;
7571;SDS011;3827;49.928;8.548;2023-01-08T10:49:03;7.15;;;6.55;;
7571;SDS011;3827;49.928;8.548;2023-01-08T10:51:32;7.30;;;6.65;;
7571;SDS011;3827;49.928;8.548;2023-01-08T10:53:59;6.78;;;6.20;;
7571;SDS011;3827;49.928;8.548;2023-01-08T10:56:28;6.55;;;5.93;;
7571;SDS011;3827;49.928;8.548;2023-01-08T10:58:57;5.85;;;5.35;;
7571;SDS011;3827;49.928;8.548;2023-01-08T11:01:24;5.47;;;5.07;;
7571;SDS011;3827;49.928;8.548;2023-01-08T11:03:53;5.30;;;4.85;;
7571;SDS011;3827;49.928;8.548;2023-01-08T11:06:22;5.47;;;5.03;;
7571;SDS011;3827;49.928;8.548;2023-01-08T11:08:50;5.05;;;4.65;;
7571;SDS011;3827;49.928;8.548;2023-01-08T11:11:18;4.90;;;4.32;;
7571;SDS011;3827;49.928;8.548;2023-01-08T11:13:54;5.05;;;4.65;;
7571;SDS011;3827;49.928;8.548;2023-01-08T11:16:28;5.00;;;4.60;;
7571;SDS011;3827;49.928;8.548;2023-01-08T11:18:56;5.00;;;4.60;;
7571;SDS011;3827;49.928;8.548;2023-01-08T11:21:24;4.95;;;4.55;;
7571;SDS011;3827;49.928;8.548;2023-01-08T11:24:14;4.90;;;4.50;;
7571;SDS011;3827;49.928;8.548;2023-01-08T11:26:44;4.65;;;4.30;;
7571;SDS011;3827;49.928;8.548;2023-01-08T11:29:14;4.63;;;4.22;;
7571;SDS011;3827;49.928;8.548;2023-01-08T11:31:45;4.50;;;4.10;;
7571;SDS011;3827;49.928;8.548;2023-01-08T11:34:16;4.72;;;4.32;;
7571;SDS011;3827;49.928;8.548;2023-01-08T11:36:48;4.60;;;4.20;;
7571;SDS011;3827;49.928;8.548;2023-01-08T11:39:18;4.38;;;4.00;;
7571;SDS011;3827;49.928;8.548;2023-01-08T11:41:55;4.28;;;3.88;;
7571;SDS011;3827;49.928;8.548;2023-01-08T11:44:30;4.35;;;4.03;;
7571;SDS011;3827;49.928;8.548;2023-01-08T11:47:07;4.40;;;4.10;;
7571;SDS011;3827;49.928;8.548;2023-01-08T11:49:40;4.00;;;3.30;;
7571;SDS011;3827;49.928;8.548;2023-01-08T11:52:28;3.63;;;3.33;;
7571;SDS011;3827;49.928;8.548;2023-01-08T11:55:01;3.85;;;3.55;;
7571;SDS011;3827;49.928;8.548;2023-01-08T11:57:41;3.42;;;3.13;;
7571;SDS011;3827;49.928;8.548;2023-01-08T12:00:17;3.20;;;2.92;;
7571;SDS011;3827;49.928;8.548;2023-01-08T12:02:59;3.28;;;2.97;;
7571;SDS011;3827;49.928;8.548;2023-01-08T12:05:30;3.40;;;2.93;;
7571;SDS011;3827;49.928;8.548;2023-01-08T12:08:03;2.50;;;2.30;;
7571;SDS011;3827;49.928;8.548;2023-01-08T12:10:34;2.60;;;2.40;;
7571;SDS011;3827;49.928;8.548;2023-01-08T12:13:24;2.20;;;2.10;;
7571;SDS011;3827;49.928;8.548;2023-01-08T12:16:05;2.25;;;2.15;;
7571;SDS011;3827;49.928;8.548;2023-01-08T12:18:42;2.45;;;1.90;;
7571;SDS011;3827;49.928;8.548;2023-01-08T12:21:15;2.83;;;2.22;;
7571;SDS011;3827;49.928;8.548;2023-01-08T12:23:54;1.90;;;1.80;;
7571;SDS011;3827;49.928;8.548;2023-01-08T12:26:28;1.93;;;1.83;;
7571;SDS011;3827;49.928;8.548;2023-01-08T12:32:09;1.70;;;1.60;;
7571;SDS011;3827;49.928;8.548;2023-01-08T12:34:52;1.98;;;1.70;;
7571;SDS011;3827;49.928;8.548;2023-01-08T12:37:24;1.98;;;1.80;;
7571;SDS011;3827;49.928;8.548;2023-01-08T12:39:53;1.73;;;1.60;;
7571;SDS011;3827;49.928;8.548;2023-01-08T12:42:20;2.20;;;2.00;;
7571;SDS011;3827;49.928;8.548;2023-01-08T12:44:52;1.83;;;1.73;;
7571;SDS011;3827;49.928;8.548;2023-01-08T12:47:21;1.70;;;1.60;;
7571;SDS011;3827;49.928;8.548;2023-01-08T12:49:53;2.03;;;1.77;;
7571;SDS011;3827;49.928;8.548;2023-01-08T12:52:27;1.83;;;1.50;;
7571;SDS011;3827;49.928;8.548;2023-01-08T12:55:01;1.90;;;1.67;;
7571;SDS011;3827;49.928;8.548;2023-01-08T12:57:33;1.60;;;1.50;;
7571;SDS011;3827;49.928;8.548;2023-01-08T13:00:05;1.50;;;1.40;;
7571;SDS011;3827;49.928;8.548;2023-01-08T13:02:48;2.42;;;1.75;;
7571;SDS011;3827;49.928;8.548;2023-01-08T13:05:29;2.45;;;1.70;;
7571;SDS011;3827;49.928;8.548;2023-01-08T13:07:57;1.73;;;1.63;;
7571;SDS011;3827;49.928;8.548;2023-01-08T13:10:28;1.63;;;1.52;;
7571;SDS011;3827;49.928;8.548;2023-01-08T13:12:58;2.00;;;1.70;;
7571;SDS011;3827;49.928;8.548;2023-01-08T13:15:27;1.55;;;1.40;;
7571;SDS011;3827;49.928;8.548;2023-01-08T13:17:56;1.95;;;1.85;;
7571;SDS011;3827;49.928;8.548;2023-01-08T13:20:29;1.70;;;1.60;;
7571;SDS011;3827;49.928;8.548;2023-01-08T13:22:58;1.45;;;1.35;;
7571;SDS011;3827;49.928;8.548;2023-01-08T13:25:27;1.92;;;1.60;;
7571;SDS011;3827;49.928;8.548;2023-01-08T13:27:56;1.65;;;1.55;;
7571;SDS011;3827;49.928;8.548;2023-01-08T13:30:33;1.80;;;1.70;;
7571;SDS011;3827;49.928;8.548;2023-01-08T13:33:02;1.60;;;1.50;;
7571;SDS011;3827;49.928;8.548;2023-01-08T13:35:31;1.50;;;1.40;;
7571;SDS011;3827;49.928;8.548;2023-01-08T13:38:11;1.45;;;1.35;;
7571;SDS011;3827;49.928;8.548;2023-01-08T13:40:52;1.75;;;1.50;;
7571;SDS011;3827;49.928;8.548;2023-01-08T13:43:21;1.83;;;1.50;;
7571;SDS011;3827;49.928;8.548;2023-01-08T13:46:11;1.80;;;1.55;;
7571;SDS011;3827;49.928;8.548;2023-01-08T13:48:46;1.90;;;1.70;;
7571;SDS011;3827;49.928;8.548;2023-01-08T13:51:23;2.00;;;1.60;;
7571;SDS011;3827;49.928;8.548;2023-01-08T13:53:58;1.50;;;1.40;;
7571;SDS011;3827;49.928;8.548;2023-01-08T13:56:28;2.13;;;1.60;;
7571;SDS011;3827;49.928;8.548;2023-01-08T13:58:56;1.40;;;1.30;;
7571;SDS011;3827;49.928;8.548;2023-01-08T14:01:23;2.28;;;1.73;;
7571;SDS011;3827;49.928;8.548;2023-01-08T14:03:50;1.67;;;1.57;;
7571;SDS011;3827;49.928;8.548;2023-01-08T14:06:18;1.40;;;1.30;;
7571;SDS011;3827;49.928;8.548;2023-01-08T14:08:50;2.00;;;1.70;;
7571;SDS011;3827;49.928;8.548;2023-01-08T14:11:19;1.98;;;1.50;;
7571;SDS011;3827;49.928;8.548;2023-01-08T14:13:48;1.30;;;1.20;;
7571;SDS011;3827;49.928;8.548;2023-01-08T14:16:15;1.73;;;1.63;;
7571;SDS011;3827;49.928;8.548;2023-01-08T14:18:43;1.75;;;1.65;;
7571;SDS011;3827;49.928;8.548;2023-01-08T14:21:11;2.00;;;1.80;;
7571;SDS011;3827;49.928;8.548;2023-01-08T14:23:40;1.83;;;1.70;;
7571;SDS011;3827;49.928;8.548;2023-01-08T14:26:15;2.35;;;1.80;;
7571;SDS011;3827;49.928;8.548;2023-01-08T14:28:49;2.47;;;1.90;;
7571;SDS011;3827;49.928;8.548;2023-01-08T14:31:18;2.30;;;2.10;;
7571;SDS011;3827;49.928;8.548;2023-01-08T14:33:46;2.00;;;1.90;;
7571;SDS011;3827;49.928;8.548;2023-01-08T14:36:14;2.28;;;2.17;;
7571;SDS011;3827;49.928;8.548;2023-01-08T14:38:41;2.20;;;2.00;;
7571;SDS011;3827;49.928;8.548;2023-01-08T14:41:16;2.78;;;2.33;;
7571;SDS011;3827;49.928;8.548;2023-01-08T14:43:45;2.30;;;2.10;;
7571;SDS011;3827;49.928;8.548;2023-01-08T14:46:14;2.15;;;1.98;;
7571;SDS011;3827;49.928;8.548;2023-01-08T14:48:44;2.17;;;1.98;;
7571;SDS011;3827;49.928;8.548;2023-01-08T14:51:12;2.20;;;2.00;;
7571;SDS011;3827;49.928;8.548;2023-01-08T14:53:41;2.70;;;2.15;;
7571;SDS011;3827;49.928;8.548;2023-01-08T14:56:10;2.40;;;2.20;;
7571;SDS011;3827;49.928;8.548;2023-01-08T14:58:41;2.93;;;2.30;;
7571;SDS011;3827;49.928;8.548;2023-01-08T15:01:13;2.42;;;2.20;;
7571;SDS011;3827;49.928;8.548;2023-01-08T15:03:41;2.40;;;2.20;;
7571;SDS011;3827;49.928;8.548;2023-01-08T15:06:08;2.60;;;2.33;;
7571;SDS011;3827;49.928;8.548;2023-01-08T15:08:36;2.88;;;2.40;;
7571;SDS011;3827;49.928;8.548;2023-01-08T15:11:04;2.30;;;2.10;;
7571;SDS011;3827;49.928;8.548;2023-01-08T15:13:33;2.58;;;2.38;;
7571;SDS011;3827;49.928;8.548;2023-01-08T15:16:07;2.30;;;2.10;;
7571;SDS011;3827;49.928;8.548;2023-01-08T15:18:41;2.33;;;2.13;;
7571;SDS011;3827;49.928;8.548;2023-01-08T15:21:09;3.77;;;2.67;;
7571;SDS011;3827;49.928;8.548;2023-01-08T15:23:37;2.38;;;2.20;;
7571;SDS011;3827;49.928;8.548;2023-01-08T15:26:08;2.53;;;2.30;;
7571;SDS011;3827;49.928;8.548;2023-01-08T15:28:36;2.37;;;2.03;;
7571;SDS011;3827;49.928;8.548;2023-01-08T15:31:04;2.10;;;2.00;;